Time;durP1;ratioP1;P1;durP2;ratioP2;P2;SDS_P1;SDS_P2;PMS_P1;PMS_P2;Temp;Humidity;BMP_temperature;BMP_pressure;BME280_temperature;BME280_humidity;BME280_pressure;Samples;Min_cycle;Max_cycle;Signal;HPM_P1;HPM_P2
2022/03/16 00:01:53;;;;;;;90.45;80.85;;;28.70;90.00;;;;;;1853087;76;21115;-87
2022/03/16 00:04:24;;;;;;;92.30;82.42;;;28.70;90.00;;;;;;1903958;74;21197;-87
2022/03/16 00:06:56;;;;;;;88.67;79.12;;;28.60;90.00;;;;;;1851144;76;21232;-87
2022/03/16 00:09:26;;;;;;;91.15;81.53;;;28.60;90.10;;;;;;1846959;75;21108;-86
2022/03/16 00:11:57;;;;;;;89.60;80.12;;;28.60;90.20;;;;;;1854776;76;21155;-86
2022/03/16 00:14:28;;;;;;;96.20;85.90;;;28.60;90.20;;;;;;1808073;77;21264;-87
2022/03/16 00:16:59;;;;;;;98.40;87.85;;;28.60;90.20;;;;;;1892147;74;21161;-87
2022/03/16 00:19:31;;;;;;;93.62;83.60;;;28.50;90.30;;;;;;1840627;77;21225;-86
2022/03/16 00:22:04;;;;;;;96.15;86.00;;;28.50;90.60;;;;;;1890056;74;21061;-87
2022/03/16 00:24:35;;;;;;;96.20;85.53;;;28.40;90.70;;;;;;1851775;76;21252;-89
2022/03/16 00:27:06;;;;;;;98.70;87.90;;;28.40;90.80;;;;;;1866049;75;21232;-87
2022/03/16 00:29:37;;;;;;;93.05;83.30;;;28.30;91.00;;;;;;1843582;76;21685;-88
2022/03/16 00:32:08;;;;;;;96.00;85.65;;;28.20;91.00;;;;;;1837303;76;21114;-87
2022/03/16 00:34:39;;;;;;;109.67;90.60;;;28.20;91.20;;;;;;1849826;76;21163;-87
2022/03/16 00:37:09;;;;;;;108.47;92.47;;;28.10;91.30;;;;;;1842852;76;21222;-87
2022/03/16 00:39:40;;;;;;;117.30;94.97;;;28.10;92.60;;;;;;1855417;76;21224;-88
2022/03/16 00:42:12;;;;;;;113.03;99.62;;;28.10;93.10;;;;;;1879383;76;21193;-87
2022/03/16 00:44:42;;;;;;;104.32;92.92;;;28.00;93.80;;;;;;1820421;78;21292;-88
2022/03/16 00:47:13;;;;;;;107.87;96.28;;;27.90;94.00;;;;;;1857149;76;21130;-87
2022/03/16 00:49:43;;;;;;;105.95;94.55;;;27.80;94.60;;;;;;1871709;74;21163;-87
2022/03/16 00:52:14;;;;;;;105.80;94.22;;;27.60;94.80;;;;;;1893016;74;21185;-87
2022/03/16 00:54:45;;;;;;;101.75;90.30;;;27.50;95.30;;;;;;1838643;76;21255;-87
2022/03/16 00:57:15;;;;;;;99.95;89.50;;;27.30;93.90;;;;;;1819925;77;21284;-86
2022/03/16 00:59:46;;;;;;;102.92;91.57;;;27.20;93.90;;;;;;1884932;74;21131;-85
2022/03/16 01:02:17;;;;;;;103.80;92.35;;;27.20;94.70;;;;;;1818535;78;21119;-87
2022/03/16 01:04:48;;;;;;;99.47;88.87;;;27.10;94.50;;;;;;1854051;75;21294;-87
2022/03/16 01:07:19;;;;;;;102.95;91.80;;;27.10;95.10;;;;;;1884678;75;21154;-88
2022/03/16 01:09:49;;;;;;;96.67;86.37;;;26.90;95.70;;;;;;1842077;77;21155;-87
2022/03/16 01:12:20;;;;;;;101.78;90.72;;;26.90;95.90;;;;;;1883351;74;21139;-87
2022/03/16 01:14:51;;;;;;;94.03;83.97;;;26.90;96.40;;;;;;1848018;76;21193;-86
2022/03/16 01:17:22;;;;;;;89.77;80.15;;;26.90;96.20;;;;;;1879561;75;21610;-86
2022/03/16 01:19:53;;;;;;;85.22;76.37;;;26.90;96.00;;;;;;1842891;75;22482;-87
2022/03/16 01:22:24;;;;;;;78.37;69.97;;;26.90;96.30;;;;;;1884529;74;21243;-87
2022/03/16 01:24:55;;;;;;;72.53;64.72;;;27.00;96.50;;;;;;1829671;77;21108;-86
2022/03/16 01:27:25;;;;;;;64.30;57.80;;;27.10;96.00;;;;;;1852447;77;21202;-85
2022/03/16 01:29:56;;;;;;;61.00;54.83;;;27.10;96.10;;;;;;1855043;76;21171;-85
2022/03/16 01:32:27;;;;;;;54.73;49.13;;;27.10;96.20;;;;;;1842678;76;21169;-87
2022/03/16 01:34:58;;;;;;;52.50;47.13;;;27.10;96.50;;;;;;1826759;77;21588;-86
2022/03/16 01:37:30;;;;;;;45.92;40.98;;;27.00;96.10;;;;;;1889017;74;21099;-88
2022/03/16 01:40:01;;;;;;;39.33;35.13;;;26.90;95.80;;;;;;1892933;74;21229;-88
2022/03/16 01:42:32;;;;;;;40.73;36.58;;;26.60;95.70;;;;;;1831382;76;21158;-86
2022/03/16 01:45:02;;;;;;;35.05;31.42;;;26.40;96.10;;;;;;1886113;74;21119;-88
2022/03/16 01:47:33;;;;;;;31.17;27.10;;;26.20;96.50;;;;;;1900918;74;21606;-87
2022/03/16 01:50:04;;;;;;;27.32;23.75;;;26.10;96.60;;;;;;1885508;74;21196;-88
2022/03/16 01:52:35;;;;;;;23.65;20.95;;;26.00;96.80;;;;;;1900862;74;21119;-87
2022/03/16 01:55:07;;;;;;;24.98;22.25;;;25.80;96.80;;;;;;1868717;74;21258;-87
2022/03/16 01:57:41;;;;;;;26.62;23.75;;;25.70;95.70;;;;;;1892687;74;21193;-87
2022/03/16 02:00:14;;;;;;;24.37;21.00;;;25.60;95.70;;;;;;1912641;74;21166;-86
2022/03/16 02:02:53;;;;;;;20.85;18.70;;;25.50;96.20;;;;;;1894142;74;21200;-86
2022/03/16 02:05:24;;;;;;;15.43;13.80;;;25.40;97.00;;;;;;1847493;76;21141;-86
2022/03/16 02:07:56;;;;;;;14.73;13.25;;;25.50;96.80;;;;;;1834438;77;21170;-86
2022/03/16 02:10:28;;;;;;;14.73;12.23;;;25.40;96.40;;;;;;1844684;76;21179;-87
2022/03/16 02:12:59;;;;;;;14.73;13.18;;;25.40;96.10;;;;;;1877730;74;21593;-87
2022/03/16 02:15:29;;;;;;;14.55;13.03;;;25.40;96.00;;;;;;1903427;74;21110;-86
2022/03/16 02:18:00;;;;;;;15.55;12.88;;;25.40;95.80;;;;;;1892493;74;21801;-86
2022/03/16 02:20:31;;;;;;;14.83;11.93;;;25.50;96.10;;;;;;1898943;74;21174;-85
2022/03/16 02:23:05;;;;;;;13.75;12.25;;;25.50;95.80;;;;;;1877784;75;21124;-86
2022/03/16 02:25:38;;;;;;;13.28;11.88;;;25.60;95.90;;;;;;1880148;76;21102;-85
2022/03/16 02:28:09;;;;;;;14.20;12.18;;;25.70;96.20;;;;;;1882742;76;21196;-84
2022/03/16 02:30:40;;;;;;;12.13;10.43;;;25.80;96.30;;;;;;1861916;76;21100;-84
2022/03/16 02:33:11;;;;;;;12.43;11.05;;;26.00;96.00;;;;;;1899444;74;21200;-83
2022/03/16 02:35:41;;;;;;;12.28;10.65;;;26.00;95.60;;;;;;1863962;76;21058;-84
2022/03/16 02:38:13;;;;;;;11.78;10.58;;;26.10;95.20;;;;;;1853509;77;21167;-85
2022/03/16 02:40:44;;;;;;;12.35;11.05;;;26.10;94.70;;;;;;1914779;74;21123;-84
2022/03/16 02:43:15;;;;;;;21.40;18.52;;;26.20;94.80;;;;;;1885338;76;21138;-84
2022/03/16 02:45:46;;;;;;;23.67;20.02;;;26.20;94.80;;;;;;1875063;76;21130;-85
2022/03/16 02:48:16;;;;;;;23.92;21.40;;;26.30;94.80;;;;;;1887379;76;21161;-84
2022/03/16 02:50:47;;;;;;;24.72;22.10;;;26.40;95.00;;;;;;1885731;74;21634;-84
2022/03/16 02:53:18;;;;;;;23.87;21.33;;;26.40;95.40;;;;;;1892170;74;21224;-85
2022/03/16 02:55:51;;;;;;;22.45;20.05;;;26.50;95.20;;;;;;1886468;76;21182;-84
2022/03/16 02:58:22;;;;;;;20.90;18.35;;;26.50;95.10;;;;;;1886669;76;21134;-85
2022/03/16 03:00:52;;;;;;;22.05;19.75;;;26.60;94.80;;;;;;1897605;74;21645;-85
2022/03/16 03:03:23;;;;;;;23.67;21.23;;;26.60;94.80;;;;;;1902200;74;21123;-85
2022/03/16 03:05:55;;;;;;;24.85;22.02;;;26.60;95.00;;;;;;1858947;76;21218;-84
2022/03/16 03:08:26;;;;;;;27.27;24.47;;;26.60;95.30;;;;;;1829153;78;21607;-84
2022/03/16 03:10:57;;;;;;;28.60;25.62;;;26.60;95.40;;;;;;1887122;74;21154;-85
2022/03/16 03:13:28;;;;;;;28.30;25.45;;;26.70;95.50;;;;;;1850245;76;21257;-84
2022/03/16 03:15:58;;;;;;;27.67;24.67;;;26.70;95.70;;;;;;1915470;75;21655;-84
2022/03/16 03:18:29;;;;;;;31.80;27.93;;;26.80;96.10;;;;;;1855541;75;21509;-85
2022/03/16 03:21:00;;;;;;;31.20;27.90;;;26.80;95.80;;;;;;1907479;74;21159;-86
2022/03/16 03:23:31;;;;;;;31.62;28.30;;;26.80;95.60;;;;;;1900763;74;21208;-85
2022/03/16 03:26:01;;;;;;;36.75;32.55;;;26.80;95.80;;;;;;1892572;76;21644;-85
2022/03/16 03:28:32;;;;;;;38.80;34.70;;;26.80;96.00;;;;;;1916083;74;21157;-84
2022/03/16 03:31:03;;;;;;;42.78;38.10;;;26.80;96.00;;;;;;1914909;74;21135;-85
2022/03/16 03:33:35;;;;;;;43.17;38.55;;;26.70;95.90;;;;;;1881344;75;21092;-85
2022/03/16 03:36:06;;;;;;;43.87;39.13;;;26.80;95.90;;;;;;1839455;76;21240;-87
2022/03/16 03:38:37;;;;;;;42.88;38.38;;;26.70;96.30;;;;;;1872613;75;21201;-85
2022/03/16 03:41:07;;;;;;;44.38;39.55;;;26.70;96.20;;;;;;1816880;77;21507;-85
2022/03/16 03:43:38;;;;;;;45.52;40.70;;;26.70;96.20;;;;;;1822567;77;21115;-84
2022/03/16 03:46:10;;;;;;;49.25;40.28;;;26.80;96.60;;;;;;1851264;76;21138;-84
2022/03/16 03:48:42;;;;;;;46.77;41.68;;;26.80;96.00;;;;;;1896513;75;21103;-85
2022/03/16 03:51:12;;;;;;;45.95;41.25;;;26.80;96.00;;;;;;1891264;75;21217;-88
2022/03/16 03:53:43;;;;;;;46.88;41.53;;;26.90;96.20;;;;;;1897468;74;21142;-85
2022/03/16 03:56:14;;;;;;;46.30;41.37;;;26.90;96.40;;;;;;1886443;74;21079;-86
2022/03/16 03:58:45;;;;;;;46.73;41.92;;;26.90;96.30;;;;;;1887128;74;21175;-85
2022/03/16 04:01:16;;;;;;;48.28;43.02;;;26.90;96.40;;;;;;1898984;75;21124;-85
2022/03/16 04:03:47;;;;;;;45.50;40.43;;;27.00;96.50;;;;;;1879812;75;21119;-86
2022/03/16 04:06:20;;;;;;;48.33;42.27;;;27.00;95.80;;;;;;1881003;76;21205;-86
2022/03/16 04:08:50;;;;;;;46.70;41.55;;;27.00;95.90;;;;;;1886590;74;21129;-87
2022/03/16 04:11:21;;;;;;;49.27;43.63;;;27.00;96.10;;;;;;1894312;74;21503;-85
2022/03/16 04:13:52;;;;;;;45.58;40.70;;;27.10;96.10;;;;;;1894685;74;21201;-86
2022/03/16 04:16:23;;;;;;;46.02;41.13;;;27.10;96.10;;;;;;1886299;74;21536;-84
2022/03/16 04:18:56;;;;;;;44.53;39.90;;;27.10;95.90;;;;;;1864293;75;21755;-86
2022/03/16 04:21:30;;;;;;;43.40;38.45;;;27.10;96.00;;;;;;1804231;77;21189;-86
2022/03/16 04:24:03;;;;;;;43.08;38.38;;;27.10;95.90;;;;;;1854196;77;21648;-85
2022/03/16 04:26:34;;;;;;;43.52;38.80;;;27.10;95.80;;;;;;1903811;74;21186;-85
2022/03/16 04:29:05;;;;;;;46.55;40.45;;;27.00;95.90;;;;;;1888316;74;21571;-87
2022/03/16 04:31:36;;;;;;;42.88;37.80;;;27.00;96.20;;;;;;1874428;74;21272;-85
2022/03/16 04:34:07;;;;;;;44.65;39.30;;;26.90;96.30;;;;;;1888595;75;21143;-85
2022/03/16 04:36:37;;;;;;;42.55;38.00;;;26.80;96.60;;;;;;1879765;75;21116;-87
2022/03/16 04:39:08;;;;;;;43.65;39.08;;;26.80;97.00;;;;;;1892615;74;21126;-86
2022/03/16 04:41:39;;;;;;;42.90;38.42;;;26.80;97.30;;;;;;1867728;74;21232;-85
2022/03/16 04:44:10;;;;;;;39.90;35.60;;;26.70;97.50;;;;;;1926657;74;21126;-86
2022/03/16 04:46:43;;;;;;;40.25;35.92;;;26.70;97.70;;;;;;1926916;74;21060;-86
2022/03/16 04:49:15;;;;;;;34.65;31.00;;;26.60;97.70;;;;;;1888263;74;21173;-87
2022/03/16 04:51:45;;;;;;;35.78;30.77;;;26.70;97.80;;;;;;1895481;74;21255;-87
2022/03/16 04:54:16;;;;;;;33.60;29.42;;;26.70;97.80;;;;;;1850760;75;21594;-85
2022/03/16 04:56:47;;;;;;;35.17;29.95;;;26.60;97.90;;;;;;1857544;76;21538;-85
2022/03/16 04:59:18;;;;;;;34.80;31.00;;;26.70;98.10;;;;;;1829144;77;21214;-86
2022/03/16 05:01:49;;;;;;;37.90;32.13;;;26.70;98.20;;;;;;1899857;75;21135;-87
2022/03/16 05:04:20;;;;;;;39.73;35.50;;;26.70;98.30;;;;;;1879818;75;21154;-87
2022/03/16 05:06:51;;;;;;;41.98;36.85;;;26.70;98.50;;;;;;1847074;76;21175;-86
2022/03/16 05:09:22;;;;;;;40.35;36.00;;;26.80;98.40;;;;;;1848436;75;21205;-86
2022/03/16 05:11:54;;;;;;;41.40;36.93;;;26.80;98.20;;;;;;1840701;77;21281;-87
2022/03/16 05:14:25;;;;;;;43.30;38.55;;;26.80;98.20;;;;;;1885325;76;21177;-85
2022/03/16 05:16:56;;;;;;;45.48;39.78;;;26.90;98.20;;;;;;1841167;77;21601;-87
2022/03/16 05:19:31;;;;;;;47.40;41.33;;;27.00;98.30;;;;;;1846244;77;21081;-88
2022/03/16 05:25:05;;;;;;;46.75;41.37;;;27.00;98.80;;;;;;1816455;77;21193;-90
2022/03/16 05:25:15;;;;;;;43.55;38.83;;;27.00;98.70;;;;;;1779372;77;21115;-88
2022/03/16 05:27:46;;;;;;;48.50;42.62;;;27.20;98.70;;;;;;1870631;74;21216;-87
2022/03/16 05:30:17;;;;;;;48.50;42.23;;;27.30;98.70;;;;;;1894743;74;21088;-86
2022/03/16 05:32:49;;;;;;;51.05;42.80;;;27.40;99.00;;;;;;1885409;75;21096;-86
2022/03/16 05:35:21;;;;;;;44.00;37.45;;;27.50;98.80;;;;;;1892659;75;21205;-87
2022/03/16 05:37:52;;;;;;;44.23;39.00;;;27.70;98.50;;;;;;1871948;75;21119;-86
2022/03/16 05:40:22;;;;;;;42.03;36.75;;;27.70;98.20;;;;;;1885123;75;21103;-85
2022/03/16 05:42:53;;;;;;;40.15;34.03;;;27.80;97.70;;;;;;1887554;74;21158;-87
2022/03/16 05:45:24;;;;;;;40.52;34.27;;;27.90;97.30;;;;;;1882292;75;21491;-88
2022/03/16 05:47:56;;;;;;;36.83;32.58;;;27.90;97.10;;;;;;1882780;74;21197;-86
2022/03/16 05:50:29;;;;;;;30.72;27.55;;;27.90;96.80;;;;;;1853650;75;21169;-87
2022/03/16 05:53:00;;;;;;;31.27;26.80;;;28.00;96.30;;;;;;1888786;75;21669;-87
2022/03/16 05:55:31;;;;;;;30.55;27.20;;;28.00;95.90;;;;;;1902638;74;21190;-88
2022/03/16 05:58:06;;;;;;;32.05;26.97;;;28.00;95.80;;;;;;1879132;74;21123;-87
2022/03/16 06:00:42;;;;;;;31.48;27.67;;;28.00;95.40;;;;;;1879634;75;21121;-85
2022/03/16 06:03:06;;;;;;;33.95;27.48;;;28.00;96.00;;;;;;1880809;75;21069;-85
2022/03/16 06:05:37;;;;;;;32.13;27.15;;;28.10;96.20;;;;;;1886184;75;21111;-87
2022/03/16 06:08:08;;;;;;;27.80;24.47;;;28.10;96.00;;;;;;1890073;75;21103;-85
2022/03/16 06:10:39;;;;;;;27.15;24.35;;;28.20;95.30;;;;;;1878324;75;21080;-85
2022/03/16 06:13:10;;;;;;;30.70;25.23;;;28.20;94.40;;;;;;1905378;74;21142;-87
2022/03/16 06:15:43;;;;;;;28.38;24.95;;;28.30;94.00;;;;;;1803055;78;21102;-86
2022/03/16 06:18:14;;;;;;;27.62;24.72;;;28.30;94.40;;;;;;1860125;74;21127;-85
2022/03/16 06:20:45;;;;;;;28.92;25.85;;;28.30;94.10;;;;;;1823002;77;21155;-85
2022/03/16 06:23:16;;;;;;;28.57;25.68;;;28.40;93.90;;;;;;1879443;76;21157;-86
2022/03/16 06:25:47;;;;;;;29.72;24.70;;;28.50;93.70;;;;;;1890352;76;21204;-85
2022/03/16 06:28:18;;;;;;;29.12;25.70;;;28.60;93.10;;;;;;1892432;75;21645;-85
2022/03/16 06:30:49;;;;;;;28.55;24.50;;;28.70;93.20;;;;;;1887357;75;21185;-87
2022/03/16 06:33:22;;;;;;;30.08;25.23;;;28.80;93.00;;;;;;1909099;74;21193;-85
2022/03/16 06:35:53;;;;;;;27.70;24.65;;;28.90;92.80;;;;;;1911979;75;21106;-85
2022/03/16 06:38:24;;;;;;;28.45;24.47;;;28.90;92.60;;;;;;1857063;75;21268;-85
2022/03/16 06:40:55;;;;;;;27.82;23.62;;;28.90;92.50;;;;;;1898926;75;21123;-85
2022/03/16 06:43:26;;;;;;;30.45;25.17;;;29.00;92.10;;;;;;1885515;75;21088;-87
2022/03/16 06:45:56;;;;;;;26.57;23.85;;;29.00;92.00;;;;;;1913480;74;21111;-86
2022/03/16 06:48:28;;;;;;;29.20;26.20;;;29.00;91.90;;;;;;1885937;76;21165;-84
2022/03/16 06:50:59;;;;;;;30.17;24.65;;;29.10;91.80;;;;;;1877351;75;21100;-85
2022/03/16 06:53:29;;;;;;;33.18;25.23;;;29.20;92.10;;;;;;1868193;75;21108;-85
2022/03/16 06:56:02;;;;;;;30.10;25.60;;;29.20;91.60;;;;;;1839944;76;21276;-85
2022/03/16 06:58:33;;;;;;;31.07;25.45;;;29.20;91.40;;;;;;1913679;74;21127;-85
2022/03/16 07:01:04;;;;;;;27.45;24.52;;;29.20;91.10;;;;;;1889341;74;21052;-86
2022/03/16 07:03:35;;;;;;;29.12;25.35;;;29.20;91.00;;;;;;1851492;75;21257;-85
2022/03/16 07:06:06;;;;;;;28.70;25.12;;;29.20;91.60;;;;;;1847930;76;21204;-86
2022/03/16 07:08:37;;;;;;;29.52;24.55;;;29.20;92.00;;;;;;1850105;76;21234;-88
2022/03/16 07:11:08;;;;;;;28.85;24.45;;;29.30;91.70;;;;;;1902968;74;21119;-87
2022/03/16 07:13:41;;;;;;;27.22;24.00;;;29.30;91.20;;;;;;1891366;75;21162;-85
2022/03/16 07:16:11;;;;;;;27.65;24.80;;;29.30;91.10;;;;;;1886210;74;21076;-86
2022/03/16 07:18:43;;;;;;;26.75;23.87;;;29.30;90.90;;;;;;1883734;75;21740;-86
2022/03/16 07:21:13;;;;;;;29.70;24.82;;;29.40;90.90;;;;;;1894169;75;21138;-87
2022/03/16 07:23:44;;;;;;;27.70;24.90;;;29.40;90.80;;;;;;1892865;74;21221;-86
2022/03/16 07:26:14;;;;;;;26.95;23.32;;;29.40;91.30;;;;;;1889819;75;21115;-86
2022/03/16 07:28:45;;;;;;;28.17;23.57;;;29.30;92.00;;;;;;1891689;75;21123;-87
2022/03/16 07:31:16;;;;;;;28.77;23.32;;;29.20;92.10;;;;;;1876159;74;21208;-85
2022/03/16 07:33:47;;;;;;;28.90;25.17;;;29.10;91.60;;;;;;1888900;74;21135;-85
2022/03/16 07:36:18;;;;;;;27.02;23.52;;;29.10;91.30;;;;;;1885656;74;21073;-86
2022/03/16 07:38:49;;;;;;;26.48;23.73;;;29.00;91.30;;;;;;1893084;75;21192;-85
2022/03/16 07:41:19;;;;;;;26.15;23.05;;;29.00;91.40;;;;;;1887621;75;21083;-86
2022/03/16 07:43:50;;;;;;;27.90;23.07;;;29.00;91.40;;;;;;1881745;75;21075;-86
2022/03/16 07:46:21;;;;;;;29.40;23.75;;;29.00;91.80;;;;;;1898002;74;21121;-86
2022/03/16 07:48:52;;;;;;;26.87;23.00;;;28.90;91.60;;;;;;1884110;74;21582;-88
2022/03/16 07:51:22;;;;;;;25.70;22.95;;;28.90;92.10;;;;;;1890963;74;21122;-85
2022/03/16 07:53:53;;;;;;;26.35;22.37;;;28.80;91.80;;;;;;1839441;76;21173;-84
2022/03/16 07:56:24;;;;;;;27.77;23.00;;;28.80;91.80;;;;;;1840004;75;21197;-86
2022/03/16 07:58:56;;;;;;;25.92;21.93;;;28.70;91.70;;;;;;1886332;74;21158;-85
2022/03/16 08:01:27;;;;;;;27.82;24.05;;;28.60;92.20;;;;;;1864794;75;21307;-86
2022/03/16 08:03:58;;;;;;;26.95;23.20;;;28.60;92.20;;;;;;1880819;74;21218;-86
2022/03/16 08:06:28;;;;;;;26.37;22.40;;;28.60;92.20;;;;;;1884611;76;21208;-86
2022/03/16 08:08:59;;;;;;;24.92;22.15;;;28.60;92.10;;;;;;1868588;76;21172;-85
2022/03/16 08:11:30;;;;;;;25.97;22.30;;;28.50;92.50;;;;;;1896892;75;21209;-86
2022/03/16 08:14:00;;;;;;;28.15;23.18;;;28.50;92.80;;;;;;1881517;75;21143;-87
2022/03/16 08:16:32;;;;;;;30.90;23.27;;;28.50;92.80;;;;;;1853614;76;21099;-85
2022/03/16 08:19:02;;;;;;;25.00;22.37;;;28.50;92.80;;;;;;1882989;75;21190;-86
2022/03/16 08:21:33;;;;;;;26.00;23.12;;;28.50;93.10;;;;;;1855042;75;21091;-86
2022/03/16 08:24:04;;;;;;;33.73;24.32;;;28.50;92.90;;;;;;1854755;76;21096;-86
2022/03/16 08:26:34;;;;;;;28.50;22.52;;;28.50;93.00;;;;;;1821277;77;21236;-85
2022/03/16 08:29:08;;;;;;;27.52;24.07;;;28.50;93.00;;;;;;1874572;75;21197;-87
2022/03/16 08:31:40;;;;;;;29.18;24.60;;;28.50;92.90;;;;;;1850395;75;21146;-87
2022/03/16 08:34:11;;;;;;;28.80;24.60;;;28.60;92.70;;;;;;1875098;76;21260;-86
2022/03/16 08:36:42;;;;;;;25.15;22.48;;;28.60;92.70;;;;;;1858366;76;21165;-86
2022/03/16 08:39:13;;;;;;;27.00;23.57;;;28.60;92.70;;;;;;1882405;76;21040;-86
2022/03/16 08:41:43;;;;;;;26.87;23.95;;;28.60;92.70;;;;;;1857444;76;21123;-86
2022/03/16 08:44:15;;;;;;;27.85;23.35;;;28.70;92.00;;;;;;1846631;77;21212;-84
2022/03/16 08:46:46;;;;;;;26.50;23.65;;;28.70;92.60;;;;;;1867750;76;21118;-86
2022/03/16 08:49:17;;;;;;;26.75;23.22;;;28.80;92.60;;;;;;1884626;75;21177;-85
2022/03/16 08:51:48;;;;;;;26.65;23.60;;;28.80;92.30;;;;;;1851077;76;21181;-86
2022/03/16 08:54:19;;;;;;;37.48;24.30;;;28.80;92.20;;;;;;1868359;76;21611;-86
2022/03/16 08:56:50;;;;;;;25.80;22.62;;;28.90;92.20;;;;;;1827556;78;21554;-85
2022/03/16 08:59:23;;;;;;;30.35;23.92;;;28.90;92.10;;;;;;1843298;77;21197;-86
2022/03/16 09:01:54;;;;;;;27.40;23.90;;;29.00;92.20;;;;;;1825851;77;21136;-86
2022/03/16 09:04:25;;;;;;;27.65;22.98;;;29.00;92.40;;;;;;1828960;76;21121;-86
2022/03/16 09:07:18;;;;;;;26.30;23.50;;;29.10;92.60;;;;;;1805763;78;21178;-86
2022/03/16 09:09:53;;;;;;;29.80;24.10;;;29.00;91.90;;;;;;1879538;75;21126;-87
2022/03/16 09:12:27;;;;;;;27.02;23.07;;;29.00;91.90;;;;;;1838790;76;21106;-86
2022/03/16 09:15:01;;;;;;;30.08;23.70;;;29.00;92.50;;;;;;1863200;75;21189;-88
2022/03/16 09:17:33;;;;;;;29.45;25.05;;;29.00;92.70;;;;;;1882240;75;21207;-87
2022/03/16 09:20:16;;;;;;;26.87;24.02;;;29.00;92.80;;;;;;1862153;77;21095;-87
2022/03/16 09:22:48;;;;;;;27.73;24.12;;;29.00;92.50;;;;;;1883096;75;21200;-86
2022/03/16 09:25:25;;;;;;;27.00;23.80;;;28.90;92.70;;;;;;1868977;76;21092;-86
2022/03/16 09:27:57;;;;;;;28.62;23.98;;;28.90;92.50;;;;;;1889323;75;21213;-83
2022/03/16 09:30:28;;;;;;;26.55;22.77;;;28.90;92.20;;;;;;1871840;75;21681;-88
2022/03/16 09:33:00;;;;;;;25.70;22.32;;;28.90;92.00;;;;;;1847671;78;21611;-88
2022/03/16 09:35:31;;;;;;;27.22;23.18;;;29.00;92.10;;;;;;1854962;77;21087;-86
2022/03/16 09:38:03;;;;;;;26.57;23.10;;;29.00;92.50;;;;;;1855220;76;21202;-88
2022/03/16 09:40:39;;;;;;;28.47;23.02;;;29.00;92.30;;;;;;1857940;76;21177;-85
2022/03/16 09:43:17;;;;;;;27.30;23.18;;;29.10;92.50;;;;;;1842062;75;21178;-85
2022/03/16 09:45:53;;;;;;;25.20;22.48;;;29.10;92.20;;;;;;1865731;76;21174;-88
2022/03/16 09:48:28;;;;;;;24.37;21.77;;;29.20;92.00;;;;;;1888934;74;21130;-85
2022/03/16 09:50:59;;;;;;;24.85;22.25;;;29.20;92.20;;;;;;1901936;75;21119;-86
2022/03/16 09:53:30;;;;;;;29.23;22.75;;;29.20;92.20;;;;;;1908986;75;21151;-87
2022/03/16 09:56:00;;;;;;;27.87;22.80;;;29.20;92.10;;;;;;1910308;75;21147;-86
2022/03/16 09:58:32;;;;;;;24.92;21.68;;;29.20;92.50;;;;;;1910456;75;21189;-85
2022/03/16 10:01:05;;;;;;;24.70;22.10;;;29.20;92.30;;;;;;1898958;75;21120;-85
2022/03/16 10:03:37;;;;;;;28.23;22.60;;;29.20;91.90;;;;;;1885325;75;21168;-84
2022/03/16 10:06:10;;;;;;;24.50;21.87;;;29.20;91.90;;;;;;1856002;76;21271;-85
2022/03/16 10:08:40;;;;;;;25.40;22.58;;;29.20;92.00;;;;;;1854859;76;21092;-85
2022/03/16 10:13:48;;;;;;;27.67;22.40;;;29.10;91.80;;;;;;1875535;76;21694;-86
2022/03/16 10:16:19;;;;;;;25.08;22.37;;;29.10;91.80;;;;;;1837305;76;21200;-85
2022/03/16 10:18:57;;;;;;;27.17;21.82;;;29.10;91.90;;;;;;1831300;77;21197;-86
2022/03/16 10:21:30;;;;;;;27.27;21.37;;;29.00;91.90;;;;;;1845649;76;21677;-85
2022/03/16 10:24:03;;;;;;;25.95;21.77;;;29.00;92.10;;;;;;1909691;74;21276;-85
2022/03/16 10:26:32;;;;;;;24.30;21.48;;;29.00;92.20;;;;;;1913953;74;21131;-85
2022/03/16 10:29:05;;;;;;;26.68;21.15;;;29.00;92.20;;;;;;1914610;74;21248;-85
2022/03/16 10:31:36;;;;;;;23.95;21.52;;;28.90;92.30;;;;;;1912519;74;21104;-86
2022/03/16 10:34:08;;;;;;;24.80;21.90;;;28.90;92.40;;;;;;1915408;74;21176;-87
2022/03/16 10:36:39;;;;;;;25.08;22.27;;;28.90;92.60;;;;;;1922822;74;21124;-86
2022/03/16 10:39:11;;;;;;;26.12;22.98;;;28.90;92.60;;;;;;1920670;74;21126;-87
2022/03/16 10:46:48;;;;;;;25.05;22.35;;;28.80;92.50;;;;;;1954413;73;21596;-85
2022/03/16 10:49:22;;;;;;;25.40;21.17;;;28.80;92.90;;;;;;1954902;73;21081;-87
2022/03/16 10:51:54;;;;;;;24.15;21.60;;;28.70;93.10;;;;;;1950397;73;21148;-86
2022/03/16 10:54:30;;;;;;;23.98;20.82;;;28.70;93.10;;;;;;1919776;74;21156;-87
2022/03/16 10:57:04;;;;;;;25.85;22.07;;;28.70;93.30;;;;;;1905921;74;21171;-86
2022/03/16 10:59:36;;;;;;;25.45;21.95;;;28.60;93.30;;;;;;1909392;74;21089;-86
2022/03/16 11:02:12;;;;;;;25.52;22.35;;;28.60;93.60;;;;;;1902816;75;21129;-87
2022/03/16 11:04:43;;;;;;;30.05;22.17;;;28.60;93.60;;;;;;1920976;74;21655;-85
2022/03/16 11:07:15;;;;;;;30.88;24.37;;;28.60;93.40;;;;;;1920682;73;21119;-87
2022/03/16 11:09:47;;;;;;;27.85;23.12;;;28.60;93.40;;;;;;1922042;75;21236;-85
2022/03/16 11:14:54;;;;;;;27.00;23.27;;;28.60;93.50;;;;;;1926715;73;21130;-86
2022/03/16 11:17:25;;;;;;;25.30;22.32;;;28.60;93.50;;;;;;1930048;73;21091;-86
2022/03/16 11:19:59;;;;;;;23.92;21.42;;;28.60;93.50;;;;;;1924990;73;21163;-87
2022/03/16 11:24:15;;;;;;;25.75;22.77;;;28.60;93.50;;;;;;1924278;73;21198;-85
2022/03/16 11:25:19;;;;;;;25.45;22.20;;;28.50;93.50;;;;;;1922844;73;21256;-84
2022/03/16 11:27:52;;;;;;;28.37;22.60;;;28.60;93.50;;;;;;1926948;73;21656;-84
2022/03/16 11:30:26;;;;;;;29.63;22.73;;;28.50;93.70;;;;;;1920998;74;21637;-83
2022/03/16 11:32:59;;;;;;;26.73;22.10;;;28.50;93.60;;;;;;1920724;75;21665;-85
2022/03/16 11:35:33;;;;;;;24.40;21.00;;;28.50;93.90;;;;;;1920437;75;21233;-85
2022/03/16 11:38:12;;;;;;;28.77;22.73;;;28.50;93.70;;;;;;1920295;75;21610;-85
2022/03/16 11:40:40;;;;;;;34.48;23.67;;;28.50;93.30;;;;;;1917804;74;21151;-84
2022/03/16 11:43:15;;;;;;;27.90;24.02;;;28.50;93.70;;;;;;1923977;74;21173;-85
2022/03/16 11:45:54;;;;;;;29.07;25.85;;;28.50;93.70;;;;;;1896562;74;21677;-85
2022/03/16 11:48:23;;;;;;;35.15;28.32;;;28.50;93.60;;;;;;1920567;74;21228;-84
2022/03/16 11:50:56;;;;;;;31.37;23.75;;;28.50;93.70;;;;;;1919666;74;21123;-85
2022/03/16 11:53:27;;;;;;;26.40;23.20;;;28.50;93.70;;;;;;1918089;74;21154;-85
2022/03/16 11:55:58;;;;;;;26.40;21.57;;;28.40;93.60;;;;;;1920780;74;21516;-85
2022/03/16 11:58:32;;;;;;;30.20;23.27;;;28.50;94.20;;;;;;1913186;74;21079;-85
2022/03/16 12:01:05;;;;;;;30.70;23.77;;;28.40;94.50;;;;;;1849936;77;21193;-85
2022/03/16 12:03:38;;;;;;;28.87;23.40;;;28.40;94.30;;;;;;1909397;74;21186;-84
2022/03/16 12:06:09;;;;;;;27.02;23.38;;;28.40;94.60;;;;;;1911032;75;21095;-85
2022/03/16 12:08:42;;;;;;;27.82;23.22;;;28.40;94.60;;;;;;1909579;75;21110;-86
2022/03/16 12:13:48;;;;;;;30.25;25.25;;;28.30;94.40;;;;;;1913755;73;21124;-85
2022/03/16 12:16:20;;;;;;;26.75;23.42;;;28.40;94.20;;;;;;1917807;73;21135;-86
2022/03/16 12:18:51;;;;;;;30.12;24.15;;;28.30;94.10;;;;;;1915474;73;21815;-85
2022/03/16 12:21:25;;;;;;;27.52;24.57;;;28.30;94.10;;;;;;1867109;74;21242;-85
2022/03/16 12:25:08;;;;;;;34.80;23.87;;;28.30;94.00;;;;;;1894364;74;21113;-85
2022/03/16 12:26:31;;;;;;;26.90;24.07;;;28.30;94.20;;;;;;1908995;74;21592;-85
2022/03/16 12:29:05;;;;;;;26.35;23.02;;;28.40;94.30;;;;;;1895030;75;21206;-86
2022/03/16 12:31:42;;;;;;;28.77;23.35;;;28.30;94.30;;;;;;1915995;74;21180;-87
2022/03/16 12:34:11;;;;;;;27.87;22.77;;;28.40;94.20;;;;;;1920368;74;21071;-86
2022/03/16 12:36:41;;;;;;;25.00;22.30;;;28.30;94.20;;;;;;1913781;75;21163;-86
2022/03/16 12:39:13;;;;;;;31.00;23.10;;;28.30;94.30;;;;;;1905044;74;21121;-87
2022/03/16 12:44:18;;;;;;;31.20;25.85;;;28.30;94.10;;;;;;1903081;74;21535;-87
2022/03/16 12:46:51;;;;;;;30.12;25.57;;;28.30;94.10;;;;;;1905622;75;21203;-85
2022/03/16 12:49:23;;;;;;;30.45;24.05;;;28.30;94.20;;;;;;1917938;75;21132;-87
2022/03/16 12:51:59;;;;;;;31.90;24.95;;;28.30;94.10;;;;;;1919867;75;21186;-88
2022/03/16 12:54:31;;;;;;;29.30;24.18;;;28.30;94.10;;;;;;1918316;74;21177;-87
2022/03/16 12:57:06;;;;;;;28.07;23.42;;;28.30;94.10;;;;;;1909629;74;21134;-87
2022/03/16 12:59:41;;;;;;;32.23;25.32;;;28.30;94.10;;;;;;1891760;74;21214;-86
2022/03/16 13:02:12;;;;;;;30.88;25.45;;;28.30;94.20;;;;;;1864927;75;21221;-87
2022/03/16 13:04:43;;;;;;;29.40;24.25;;;28.30;94.30;;;;;;1857559;76;21226;-85